sensor_id;sensor_type;location;lat;lon;timestamp;temperature;humidity
41926;DHT22;27615;51.826;5.692;2022-08-21T00:00:50;17.10;86.50
41926;DHT22;27615;51.826;5.692;2022-08-21T00:03:16;17.00;86.70
41926;DHT22;27615;51.826;5.692;2022-08-21T00:05:46;17.00;87.00
41926;DHT22;27615;51.826;5.692;2022-08-21T00:08:12;16.90;87.20
41926;DHT22;27615;51.826;5.692;2022-08-21T00:10:42;16.90;87.30
41926;DHT22;27615;51.826;5.692;2022-08-21T00:13:09;16.90;87.40
41926;DHT22;27615;51.826;5.692;2022-08-21T00:15:37;16.90;87.60
41926;DHT22;27615;51.826;5.692;2022-08-21T00:18:04;16.90;87.80
41926;DHT22;27615;51.826;5.692;2022-08-21T00:20:30;16.80;87.90
41926;DHT22;27615;51.826;5.692;2022-08-21T00:22:55;16.80;88.20
41926;DHT22;27615;51.826;5.692;2022-08-21T00:25:21;16.80;88.60
41926;DHT22;27615;51.826;5.692;2022-08-21T00:27:47;16.80;88.70
41926;DHT22;27615;51.826;5.692;2022-08-21T00:30:15;16.80;88.80
41926;DHT22;27615;51.826;5.692;2022-08-21T00:32:41;16.80;88.90
41926;DHT22;27615;51.826;5.692;2022-08-21T00:35:10;16.70;89.10
41926;DHT22;27615;51.826;5.692;2022-08-21T00:37:37;16.70;89.30
41926;DHT22;27615;51.826;5.692;2022-08-21T00:40:03;16.60;89.20
41926;DHT22;27615;51.826;5.692;2022-08-21T00:42:30;16.50;89.80
41926;DHT22;27615;51.826;5.692;2022-08-21T00:44:55;16.50;89.90
41926;DHT22;27615;51.826;5.692;2022-08-21T00:47:21;16.50;90.00
41926;DHT22;27615;51.826;5.692;2022-08-21T00:49:47;16.50;90.00
41926;DHT22;27615;51.826;5.692;2022-08-21T00:52:17;16.50;90.00
41926;DHT22;27615;51.826;5.692;2022-08-21T00:54:44;16.50;90.00
41926;DHT22;27615;51.826;5.692;2022-08-21T00:57:19;16.50;90.10
41926;DHT22;27615;51.826;5.692;2022-08-21T00:59:48;16.40;90.10
41926;DHT22;27615;51.826;5.692;2022-08-21T01:02:16;16.40;90.20
41926;DHT22;27615;51.826;5.692;2022-08-21T01:04:42;16.40;90.30
41926;DHT22;27615;51.826;5.692;2022-08-21T01:07:08;16.30;90.40
41926;DHT22;27615;51.826;5.692;2022-08-21T01:09:34;16.30;90.60
41926;DHT22;27615;51.826;5.692;2022-08-21T01:12:00;16.20;90.80
41926;DHT22;27615;51.826;5.692;2022-08-21T01:14:27;16.20;91.00
41926;DHT22;27615;51.826;5.692;2022-08-21T01:16:54;16.20;91.10
41926;DHT22;27615;51.826;5.692;2022-08-21T01:19:21;16.10;91.20
41926;DHT22;27615;51.826;5.692;2022-08-21T01:21:47;16.10;91.30
41926;DHT22;27615;51.826;5.692;2022-08-21T01:24:13;16.10;91.40
41926;DHT22;27615;51.826;5.692;2022-08-21T01:26:40;16.10;91.50
41926;DHT22;27615;51.826;5.692;2022-08-21T01:29:14;16.10;91.50
41926;DHT22;27615;51.826;5.692;2022-08-21T01:31:41;16.10;91.60
41926;DHT22;27615;51.826;5.692;2022-08-21T01:34:07;16.00;91.60
41926;DHT22;27615;51.826;5.692;2022-08-21T01:36:33;16.00;91.70
41926;DHT22;27615;51.826;5.692;2022-08-21T01:38:59;16.00;91.70
41926;DHT22;27615;51.826;5.692;2022-08-21T01:41:24;16.00;91.70
41926;DHT22;27615;51.826;5.692;2022-08-21T01:43:50;16.00;91.80
41926;DHT22;27615;51.826;5.692;2022-08-21T01:46:16;16.00;91.90
41926;DHT22;27615;51.826;5.692;2022-08-21T01:48:42;16.00;92.00
41926;DHT22;27615;51.826;5.692;2022-08-21T01:51:08;15.90;92.10
41926;DHT22;27615;51.826;5.692;2022-08-21T01:53:34;15.90;92.20
41926;DHT22;27615;51.826;5.692;2022-08-21T01:56:04;15.90;92.30
41926;DHT22;27615;51.826;5.692;2022-08-21T01:58:30;15.90;92.40
41926;DHT22;27615;51.826;5.692;2022-08-21T02:00:56;15.90;92.40
41926;DHT22;27615;51.826;5.692;2022-08-21T02:03:21;15.90;92.50
41926;DHT22;27615;51.826;5.692;2022-08-21T02:05:47;15.90;92.60
41926;DHT22;27615;51.826;5.692;2022-08-21T02:08:13;15.90;92.60
41926;DHT22;27615;51.826;5.692;2022-08-21T02:10:38;15.80;92.60
41926;DHT22;27615;51.826;5.692;2022-08-21T02:13:04;15.80;92.80
41926;DHT22;27615;51.826;5.692;2022-08-21T02:15:30;15.70;92.90
41926;DHT22;27615;51.826;5.692;2022-08-21T02:17:59;15.70;93.30
41926;DHT22;27615;51.826;5.692;2022-08-21T02:20:41;15.70;93.00
41926;DHT22;27615;51.826;5.692;2022-08-21T02:23:09;15.70;93.10
41926;DHT22;27615;51.826;5.692;2022-08-21T02:25:35;15.70;93.20
41926;DHT22;27615;51.826;5.692;2022-08-21T02:28:05;15.70;93.30
41926;DHT22;27615;51.826;5.692;2022-08-21T02:30:34;15.70;93.30
41926;DHT22;27615;51.826;5.692;2022-08-21T02:33:00;15.60;93.40
41926;DHT22;27615;51.826;5.692;2022-08-21T02:35:27;15.60;93.40
41926;DHT22;27615;51.826;5.692;2022-08-21T02:38:01;15.60;93.50
41926;DHT22;27615;51.826;5.692;2022-08-21T02:40:34;15.60;93.50
41926;DHT22;27615;51.826;5.692;2022-08-21T02:43:03;15.60;93.60
41926;DHT22;27615;51.826;5.692;2022-08-21T02:45:29;15.50;93.60
41926;DHT22;27615;51.826;5.692;2022-08-21T02:47:59;15.50;93.70
41926;DHT22;27615;51.826;5.692;2022-08-21T02:50:27;15.50;93.80
41926;DHT22;27615;51.826;5.692;2022-08-21T02:52:54;15.40;94.00
41926;DHT22;27615;51.826;5.692;2022-08-21T02:55:21;15.40;94.00
41926;DHT22;27615;51.826;5.692;2022-08-21T02:57:47;15.30;94.10
41926;DHT22;27615;51.826;5.692;2022-08-21T03:00:15;15.30;94.20
41926;DHT22;27615;51.826;5.692;2022-08-21T03:02:41;15.30;94.20
41926;DHT22;27615;51.826;5.692;2022-08-21T03:05:08;15.30;94.30
41926;DHT22;27615;51.826;5.692;2022-08-21T03:07:34;15.30;94.40
41926;DHT22;27615;51.826;5.692;2022-08-21T03:10:00;15.30;94.50
41926;DHT22;27615;51.826;5.692;2022-08-21T03:12:26;15.20;94.60
41926;DHT22;27615;51.826;5.692;2022-08-21T03:14:51;15.20;94.70
41926;DHT22;27615;51.826;5.692;2022-08-21T03:17:17;15.20;94.70
41926;DHT22;27615;51.826;5.692;2022-08-21T03:19:42;15.20;94.80
41926;DHT22;27615;51.826;5.692;2022-08-21T03:22:08;15.10;94.80
41926;DHT22;27615;51.826;5.692;2022-08-21T03:24:33;15.10;94.90
41926;DHT22;27615;51.826;5.692;2022-08-21T03:26:59;15.10;95.00
41926;DHT22;27615;51.826;5.692;2022-08-21T03:29:25;15.10;95.00
41926;DHT22;27615;51.826;5.692;2022-08-21T03:31:50;15.10;95.10
41926;DHT22;27615;51.826;5.692;2022-08-21T03:34:18;15.00;95.10
41926;DHT22;27615;51.826;5.692;2022-08-21T03:36:44;15.10;95.10
41926;DHT22;27615;51.826;5.692;2022-08-21T03:39:09;15.00;95.00
41926;DHT22;27615;51.826;5.692;2022-08-21T03:41:35;15.00;95.00
41926;DHT22;27615;51.826;5.692;2022-08-21T03:44:00;15.00;94.90
41926;DHT22;27615;51.826;5.692;2022-08-21T03:46:26;15.00;94.90
41926;DHT22;27615;51.826;5.692;2022-08-21T03:48:52;15.00;94.90
41926;DHT22;27615;51.826;5.692;2022-08-21T03:51:18;15.00;94.90
41926;DHT22;27615;51.826;5.692;2022-08-21T03:53:43;15.00;95.00
41926;DHT22;27615;51.826;5.692;2022-08-21T03:56:10;14.90;95.00
41926;DHT22;27615;51.826;5.692;2022-08-21T03:58:36;14.90;95.10
41926;DHT22;27615;51.826;5.692;2022-08-21T04:01:04;14.90;95.10
41926;DHT22;27615;51.826;5.692;2022-08-21T04:03:32;14.90;95.20
41926;DHT22;27615;51.826;5.692;2022-08-21T04:05:58;14.90;95.30
41926;DHT22;27615;51.826;5.692;2022-08-21T04:08:24;14.80;95.30
41926;DHT22;27615;51.826;5.692;2022-08-21T04:10:52;14.80;95.30
41926;DHT22;27615;51.826;5.692;2022-08-21T04:13:19;14.80;95.40
41926;DHT22;27615;51.826;5.692;2022-08-21T04:15:45;14.80;95.40
41926;DHT22;27615;51.826;5.692;2022-08-21T04:18:10;14.80;95.50
41926;DHT22;27615;51.826;5.692;2022-08-21T04:20:36;14.70;95.50
41926;DHT22;27615;51.826;5.692;2022-08-21T04:23:03;14.70;95.60
41926;DHT22;27615;51.826;5.692;2022-08-21T04:25:29;14.70;95.60
41926;DHT22;27615;51.826;5.692;2022-08-21T04:27:54;14.70;95.70
41926;DHT22;27615;51.826;5.692;2022-08-21T04:30:21;14.60;95.80
41926;DHT22;27615;51.826;5.692;2022-08-21T04:32:49;14.60;95.90
41926;DHT22;27615;51.826;5.692;2022-08-21T04:35:18;14.60;95.90
41926;DHT22;27615;51.826;5.692;2022-08-21T04:37:43;14.60;96.00
41926;DHT22;27615;51.826;5.692;2022-08-21T04:40:11;14.60;96.10
41926;DHT22;27615;51.826;5.692;2022-08-21T04:43:07;14.50;96.10
41926;DHT22;27615;51.826;5.692;2022-08-21T04:45:41;14.50;96.10
41926;DHT22;27615;51.826;5.692;2022-08-21T04:48:09;14.50;96.30
41926;DHT22;27615;51.826;5.692;2022-08-21T04:50:38;14.40;96.40
41926;DHT22;27615;51.826;5.692;2022-08-21T04:53:08;14.50;96.50
41926;DHT22;27615;51.826;5.692;2022-08-21T04:55:35;14.40;96.40
41926;DHT22;27615;51.826;5.692;2022-08-21T04:58:04;14.40;96.60
41926;DHT22;27615;51.826;5.692;2022-08-21T05:00:30;14.30;96.70
41926;DHT22;27615;51.826;5.692;2022-08-21T05:02:57;14.30;97.10
41926;DHT22;27615;51.826;5.692;2022-08-21T05:05:25;14.20;97.50
41926;DHT22;27615;51.826;5.692;2022-08-21T05:07:53;14.20;97.70
41926;DHT22;27615;51.826;5.692;2022-08-21T05:10:19;14.20;97.80
41926;DHT22;27615;51.826;5.692;2022-08-21T05:12:45;14.20;97.90
41926;DHT22;27615;51.826;5.692;2022-08-21T05:15:12;14.20;97.90
41926;DHT22;27615;51.826;5.692;2022-08-21T05:17:38;14.20;98.10
41926;DHT22;27615;51.826;5.692;2022-08-21T05:20:04;14.20;98.20
41926;DHT22;27615;51.826;5.692;2022-08-21T05:22:30;14.20;98.40
41926;DHT22;27615;51.826;5.692;2022-08-21T05:24:56;14.10;98.90
41926;DHT22;27615;51.826;5.692;2022-08-21T05:27:22;14.20;99.10
41926;DHT22;27615;51.826;5.692;2022-08-21T05:29:47;14.20;99.20
41926;DHT22;27615;51.826;5.692;2022-08-21T05:32:13;14.20;99.30
41926;DHT22;27615;51.826;5.692;2022-08-21T05:34:39;14.20;99.60
41926;DHT22;27615;51.826;5.692;2022-08-21T05:37:05;14.30;99.30
41926;DHT22;27615;51.826;5.692;2022-08-21T05:39:31;14.30;99.40
41926;DHT22;27615;51.826;5.692;2022-08-21T05:41:56;14.30;99.50
41926;DHT22;27615;51.826;5.692;2022-08-21T05:44:22;14.30;99.70
41926;DHT22;27615;51.826;5.692;2022-08-21T05:46:48;14.30;99.80
41926;DHT22;27615;51.826;5.692;2022-08-21T05:49:13;14.40;99.90
41926;DHT22;27615;51.826;5.692;2022-08-21T05:51:40;14.40;99.90
41926;DHT22;27615;51.826;5.692;2022-08-21T05:54:06;14.40;99.90
41926;DHT22;27615;51.826;5.692;2022-08-21T05:56:32;14.50;99.90
41926;DHT22;27615;51.826;5.692;2022-08-21T05:58:57;14.50;99.90
41926;DHT22;27615;51.826;5.692;2022-08-21T06:01:23;14.50;99.90
41926;DHT22;27615;51.826;5.692;2022-08-21T06:03:49;14.60;99.90
41926;DHT22;27615;51.826;5.692;2022-08-21T06:06:15;14.60;99.90
41926;DHT22;27615;51.826;5.692;2022-08-21T06:08:41;14.60;99.90
41926;DHT22;27615;51.826;5.692;2022-08-21T06:11:08;14.70;99.90
41926;DHT22;27615;51.826;5.692;2022-08-21T06:13:34;14.70;99.90
41926;DHT22;27615;51.826;5.692;2022-08-21T06:16:12;14.80;99.90
41926;DHT22;27615;51.826;5.692;2022-08-21T06:18:38;14.90;99.90
41926;DHT22;27615;51.826;5.692;2022-08-21T06:21:05;15.00;99.90
41926;DHT22;27615;51.826;5.692;2022-08-21T06:23:32;15.00;99.90
41926;DHT22;27615;51.826;5.692;2022-08-21T06:25:57;15.10;99.90
41926;DHT22;27615;51.826;5.692;2022-08-21T06:28:23;15.10;99.90
41926;DHT22;27615;51.826;5.692;2022-08-21T06:30:49;15.20;99.90
41926;DHT22;27615;51.826;5.692;2022-08-21T06:33:15;15.30;99.90
41926;DHT22;27615;51.826;5.692;2022-08-21T06:35:40;15.30;99.90
41926;DHT22;27615;51.826;5.692;2022-08-21T06:38:06;15.40;99.90
41926;DHT22;27615;51.826;5.692;2022-08-21T06:40:32;15.50;99.90
41926;DHT22;27615;51.826;5.692;2022-08-21T06:43:04;15.50;99.90
41926;DHT22;27615;51.826;5.692;2022-08-21T06:45:30;15.60;99.90
41926;DHT22;27615;51.826;5.692;2022-08-21T06:47:55;15.70;99.90
41926;DHT22;27615;51.826;5.692;2022-08-21T06:50:21;15.80;99.90
41926;DHT22;27615;51.826;5.692;2022-08-21T06:52:47;15.80;99.90
41926;DHT22;27615;51.826;5.692;2022-08-21T06:55:13;15.90;99.90
41926;DHT22;27615;51.826;5.692;2022-08-21T06:57:39;16.00;99.90
41926;DHT22;27615;51.826;5.692;2022-08-21T07:00:05;16.00;99.80
41926;DHT22;27615;51.826;5.692;2022-08-21T07:02:31;16.10;99.70
41926;DHT22;27615;51.826;5.692;2022-08-21T07:04:58;16.20;99.70
41926;DHT22;27615;51.826;5.692;2022-08-21T07:07:24;16.20;99.60
41926;DHT22;27615;51.826;5.692;2022-08-21T07:09:49;16.30;99.60
41926;DHT22;27615;51.826;5.692;2022-08-21T07:12:15;16.40;99.60
41926;DHT22;27615;51.826;5.692;2022-08-21T07:14:40;16.50;99.50
41926;DHT22;27615;51.826;5.692;2022-08-21T07:17:06;16.60;99.40
41926;DHT22;27615;51.826;5.692;2022-08-21T07:19:32;16.70;99.40
41926;DHT22;27615;51.826;5.692;2022-08-21T07:22:00;16.80;99.40
41926;DHT22;27615;51.826;5.692;2022-08-21T07:24:26;16.90;99.40
41926;DHT22;27615;51.826;5.692;2022-08-21T07:26:52;16.90;99.30
41926;DHT22;27615;51.826;5.692;2022-08-21T07:29:18;17.00;99.20
41926;DHT22;27615;51.826;5.692;2022-08-21T07:31:44;17.10;99.10
41926;DHT22;27615;51.826;5.692;2022-08-21T07:34:09;17.20;99.00
41926;DHT22;27615;51.826;5.692;2022-08-21T07:36:35;17.40;99.00
41926;DHT22;27615;51.826;5.692;2022-08-21T07:39:00;17.40;98.80
41926;DHT22;27615;51.826;5.692;2022-08-21T07:41:28;17.60;98.70
41926;DHT22;27615;51.826;5.692;2022-08-21T07:43:55;17.70;98.60
41926;DHT22;27615;51.826;5.692;2022-08-21T07:46:22;17.80;98.60
41926;DHT22;27615;51.826;5.692;2022-08-21T07:48:48;17.90;98.50
41926;DHT22;27615;51.826;5.692;2022-08-21T07:51:15;17.90;98.30
41926;DHT22;27615;51.826;5.692;2022-08-21T07:53:46;18.00;98.20
41926;DHT22;27615;51.826;5.692;2022-08-21T07:56:12;18.00;98.10
41926;DHT22;27615;51.826;5.692;2022-08-21T07:58:38;18.10;98.10
41926;DHT22;27615;51.826;5.692;2022-08-21T08:01:05;18.10;98.00
41926;DHT22;27615;51.826;5.692;2022-08-21T08:03:31;18.10;97.90
41926;DHT22;27615;51.826;5.692;2022-08-21T08:05:59;18.20;97.90
41926;DHT22;27615;51.826;5.692;2022-08-21T08:08:25;18.30;97.80
41926;DHT22;27615;51.826;5.692;2022-08-21T08:10:52;18.30;97.70
41926;DHT22;27615;51.826;5.692;2022-08-21T08:13:18;18.40;97.50
41926;DHT22;27615;51.826;5.692;2022-08-21T08:15:44;18.50;97.40
41926;DHT22;27615;51.826;5.692;2022-08-21T08:18:09;18.60;97.30
41926;DHT22;27615;51.826;5.692;2022-08-21T08:20:35;18.70;97.20
41926;DHT22;27615;51.826;5.692;2022-08-21T08:23:01;18.80;97.00
41926;DHT22;27615;51.826;5.692;2022-08-21T08:25:27;18.80;96.90
41926;DHT22;27615;51.826;5.692;2022-08-21T08:27:53;18.90;96.80
41926;DHT22;27615;51.826;5.692;2022-08-21T08:30:19;19.00;96.70
41926;DHT22;27615;51.826;5.692;2022-08-21T08:32:47;19.10;96.60
41926;DHT22;27615;51.826;5.692;2022-08-21T08:35:13;19.20;96.50
41926;DHT22;27615;51.826;5.692;2022-08-21T08:37:40;19.30;96.30
41926;DHT22;27615;51.826;5.692;2022-08-21T08:40:10;19.30;96.00
41926;DHT22;27615;51.826;5.692;2022-08-21T08:42:36;19.40;95.70
41926;DHT22;27615;51.826;5.692;2022-08-21T08:45:09;19.50;95.70
41926;DHT22;27615;51.826;5.692;2022-08-21T08:47:38;19.60;95.60
41926;DHT22;27615;51.826;5.692;2022-08-21T08:50:12;19.70;95.20
41926;DHT22;27615;51.826;5.692;2022-08-21T08:52:49;19.70;95.00
41926;DHT22;27615;51.826;5.692;2022-08-21T08:55:23;19.80;95.00
41926;DHT22;27615;51.826;5.692;2022-08-21T08:57:51;19.90;94.60
41926;DHT22;27615;51.826;5.692;2022-08-21T09:00:20;20.00;94.30
41926;DHT22;27615;51.826;5.692;2022-08-21T09:02:46;20.10;94.20
41926;DHT22;27615;51.826;5.692;2022-08-21T09:05:24;20.10;94.00
41926;DHT22;27615;51.826;5.692;2022-08-21T09:13:46;20.50;93.00
41926;DHT22;27615;51.826;5.692;2022-08-21T09:22:10;20.80;92.10
41926;DHT22;27615;51.826;5.692;2022-08-21T09:24:42;20.90;91.70
41926;DHT22;27615;51.826;5.692;2022-08-21T09:27:11;20.90;90.40
41926;DHT22;27615;51.826;5.692;2022-08-21T09:29:40;21.00;90.30
41926;DHT22;27615;51.826;5.692;2022-08-21T09:32:24;21.10;90.50
41926;DHT22;27615;51.826;5.692;2022-08-21T09:37:33;21.40;90.00
41926;DHT22;27615;51.826;5.692;2022-08-21T09:40:01;21.50;89.40
41926;DHT22;27615;51.826;5.692;2022-08-21T09:42:30;21.60;89.10
41926;DHT22;27615;51.826;5.692;2022-08-21T09:45:12;21.80;87.80
41926;DHT22;27615;51.826;5.692;2022-08-21T09:47:40;21.80;86.10
41926;DHT22;27615;51.826;5.692;2022-08-21T09:50:15;21.80;86.30
41926;DHT22;27615;51.826;5.692;2022-08-21T09:52:49;22.00;85.10
41926;DHT22;27615;51.826;5.692;2022-08-21T09:55:21;22.10;84.20
41926;DHT22;27615;51.826;5.692;2022-08-21T09:58:08;22.20;83.80
41926;DHT22;27615;51.826;5.692;2022-08-21T10:00:34;22.40;83.60
41926;DHT22;27615;51.826;5.692;2022-08-21T10:03:14;22.50;81.10
41926;DHT22;27615;51.826;5.692;2022-08-21T10:05:40;22.50;81.30
41926;DHT22;27615;51.826;5.692;2022-08-21T10:08:19;22.50;81.20
41926;DHT22;27615;51.826;5.692;2022-08-21T10:10:45;22.60;79.50
41926;DHT22;27615;51.826;5.692;2022-08-21T10:18:41;23.10;79.80
41926;DHT22;27615;51.826;5.692;2022-08-21T10:21:10;23.40;79.30
41926;DHT22;27615;51.826;5.692;2022-08-21T10:32:30;24.10;76.50
41926;DHT22;27615;51.826;5.692;2022-08-21T10:35:12;24.30;74.80
41926;DHT22;27615;51.826;5.692;2022-08-21T10:38:08;24.40;73.90
41926;DHT22;27615;51.826;5.692;2022-08-21T10:40:48;24.50;73.40
41926;DHT22;27615;51.826;5.692;2022-08-21T10:46:17;24.90;70.30
41926;DHT22;27615;51.826;5.692;2022-08-21T10:49:11;24.80;69.70
41926;DHT22;27615;51.826;5.692;2022-08-21T10:52:05;24.70;70.00
41926;DHT22;27615;51.826;5.692;2022-08-21T10:55:19;24.90;70.50
41926;DHT22;27615;51.826;5.692;2022-08-21T10:57:58;25.00;70.60
41926;DHT22;27615;51.826;5.692;2022-08-21T11:03:11;25.10;70.30
41926;DHT22;27615;51.826;5.692;2022-08-21T11:05:48;25.10;70.20
41926;DHT22;27615;51.826;5.692;2022-08-21T11:13:49;26.70;69.70
41926;DHT22;27615;51.826;5.692;2022-08-21T11:16:44;27.60;66.50
41926;DHT22;27615;51.826;5.692;2022-08-21T11:19:13;28.00;63.60
41926;DHT22;27615;51.826;5.692;2022-08-21T11:21:54;28.50;61.80
41926;DHT22;27615;51.826;5.692;2022-08-21T11:27:42;29.10;60.10
41926;DHT22;27615;51.826;5.692;2022-08-21T11:30:09;29.40;59.00
41926;DHT22;27615;51.826;5.692;2022-08-21T11:36:07;29.50;57.20
41926;DHT22;27615;51.826;5.692;2022-08-21T11:38:42;29.60;55.50
41926;DHT22;27615;51.826;5.692;2022-08-21T11:41:28;29.70;55.50
41926;DHT22;27615;51.826;5.692;2022-08-21T11:52:27;29.90;53.50
41926;DHT22;27615;51.826;5.692;2022-08-21T11:55:02;29.90;53.30
41926;DHT22;27615;51.826;5.692;2022-08-21T11:57:36;30.10;53.00
41926;DHT22;27615;51.826;5.692;2022-08-21T12:00:16;30.10;52.60
41926;DHT22;27615;51.826;5.692;2022-08-21T12:02:50;30.10;52.40
41926;DHT22;27615;51.826;5.692;2022-08-21T12:05:44;30.20;51.80
41926;DHT22;27615;51.826;5.692;2022-08-21T12:08:15;30.20;51.60
41926;DHT22;27615;51.826;5.692;2022-08-21T12:13:39;29.90;51.70
41926;DHT22;27615;51.826;5.692;2022-08-21T12:16:10;29.90;52.00
41926;DHT22;27615;51.826;5.692;2022-08-21T12:18:36;30.10;51.30
41926;DHT22;27615;51.826;5.692;2022-08-21T12:21:26;30.10;50.90
41926;DHT22;27615;51.826;5.692;2022-08-21T12:24:03;30.20;50.30
41926;DHT22;27615;51.826;5.692;2022-08-21T12:26:36;30.30;49.80
41926;DHT22;27615;51.826;5.692;2022-08-21T12:29:25;30.40;49.60
41926;DHT22;27615;51.826;5.692;2022-08-21T12:31:55;30.40;49.50
41926;DHT22;27615;51.826;5.692;2022-08-21T12:34:24;30.60;49.80
41926;DHT22;27615;51.826;5.692;2022-08-21T12:37:02;30.80;49.10
41926;DHT22;27615;51.826;5.692;2022-08-21T12:39:31;31.00;48.50
41926;DHT22;27615;51.826;5.692;2022-08-21T12:41:59;31.20;47.80
41926;DHT22;27615;51.826;5.692;2022-08-21T12:44:44;31.10;47.10
41926;DHT22;27615;51.826;5.692;2022-08-21T12:47:36;31.10;47.10
41926;DHT22;27615;51.826;5.692;2022-08-21T12:50:17;31.00;47.30
41926;DHT22;27615;51.826;5.692;2022-08-21T12:52:51;31.20;47.30
41926;DHT22;27615;51.826;5.692;2022-08-21T12:55:27;31.40;47.40
41926;DHT22;27615;51.826;5.692;2022-08-21T12:57:53;31.60;47.20
41926;DHT22;27615;51.826;5.692;2022-08-21T13:00:22;31.80;47.00
41926;DHT22;27615;51.826;5.692;2022-08-21T13:02:49;31.80;46.60
41926;DHT22;27615;51.826;5.692;2022-08-21T13:05:32;31.80;46.90
41926;DHT22;27615;51.826;5.692;2022-08-21T13:08:02;31.80;46.80
41926;DHT22;27615;51.826;5.692;2022-08-21T13:10:30;31.60;46.70
41926;DHT22;27615;51.826;5.692;2022-08-21T13:13:03;31.60;47.00
41926;DHT22;27615;51.826;5.692;2022-08-21T13:15:32;31.70;46.60
41926;DHT22;27615;51.826;5.692;2022-08-21T13:17:58;31.80;46.80
41926;DHT22;27615;51.826;5.692;2022-08-21T13:22:58;31.70;46.30
41926;DHT22;27615;51.826;5.692;2022-08-21T13:25:29;31.80;46.50
41926;DHT22;27615;51.826;5.692;2022-08-21T13:28:00;31.80;46.20
41926;DHT22;27615;51.826;5.692;2022-08-21T13:30:26;31.70;46.00
41926;DHT22;27615;51.826;5.692;2022-08-21T13:32:56;31.50;45.70
41926;DHT22;27615;51.826;5.692;2022-08-21T13:35:29;31.60;45.90
41926;DHT22;27615;51.826;5.692;2022-08-21T13:37:56;31.80;45.10
41926;DHT22;27615;51.826;5.692;2022-08-21T13:40:29;32.00;44.50
41926;DHT22;27615;51.826;5.692;2022-08-21T13:42:57;32.20;44.80
41926;DHT22;27615;51.826;5.692;2022-08-21T13:45:29;32.30;44.80
41926;DHT22;27615;51.826;5.692;2022-08-21T13:47:57;32.20;44.90
41926;DHT22;27615;51.826;5.692;2022-08-21T13:50:24;32.20;44.90
41926;DHT22;27615;51.826;5.692;2022-08-21T13:52:57;32.20;44.80
41926;DHT22;27615;51.826;5.692;2022-08-21T13:55:23;32.30;44.80
41926;DHT22;27615;51.826;5.692;2022-08-21T13:58:00;32.40;44.80
41926;DHT22;27615;51.826;5.692;2022-08-21T14:00:28;32.40;44.50
41926;DHT22;27615;51.826;5.692;2022-08-21T14:03:06;32.30;44.90
41926;DHT22;27615;51.826;5.692;2022-08-21T14:05:35;32.30;44.50
41926;DHT22;27615;51.826;5.692;2022-08-21T14:08:14;32.30;44.40
41926;DHT22;27615;51.826;5.692;2022-08-21T14:10:47;32.40;44.10
41926;DHT22;27615;51.826;5.692;2022-08-21T14:13:37;32.20;43.70
41926;DHT22;27615;51.826;5.692;2022-08-21T14:16:20;32.10;43.80
41926;DHT22;27615;51.826;5.692;2022-08-21T14:21:30;31.80;44.10
41926;DHT22;27615;51.826;5.692;2022-08-21T14:24:11;31.60;44.10
41926;DHT22;27615;51.826;5.692;2022-08-21T14:26:45;31.50;44.40
41926;DHT22;27615;51.826;5.692;2022-08-21T14:29:13;31.50;44.60
41926;DHT22;27615;51.826;5.692;2022-08-21T14:31:40;31.40;44.80
41926;DHT22;27615;51.826;5.692;2022-08-21T14:34:05;31.30;44.90
41926;DHT22;27615;51.826;5.692;2022-08-21T14:36:31;31.20;45.40
41926;DHT22;27615;51.826;5.692;2022-08-21T14:38:56;31.20;44.80
41926;DHT22;27615;51.826;5.692;2022-08-21T14:41:24;31.10;44.90
41926;DHT22;27615;51.826;5.692;2022-08-21T14:43:52;31.10;44.80
41926;DHT22;27615;51.826;5.692;2022-08-21T14:46:27;31.30;44.90
41926;DHT22;27615;51.826;5.692;2022-08-21T14:48:53;31.30;44.40
41926;DHT22;27615;51.826;5.692;2022-08-21T14:51:19;31.30;44.20
41926;DHT22;27615;51.826;5.692;2022-08-21T14:53:45;31.10;43.90
41926;DHT22;27615;51.826;5.692;2022-08-21T14:56:12;30.80;43.90
41926;DHT22;27615;51.826;5.692;2022-08-21T14:58:40;30.90;44.00
41926;DHT22;27615;51.826;5.692;2022-08-21T15:01:07;31.10;43.80
41926;DHT22;27615;51.826;5.692;2022-08-21T15:03:34;31.30;43.50
41926;DHT22;27615;51.826;5.692;2022-08-21T15:06:03;31.50;43.40
41926;DHT22;27615;51.826;5.692;2022-08-21T15:08:29;31.70;43.10
41926;DHT22;27615;51.826;5.692;2022-08-21T15:10:55;31.90;42.80
41926;DHT22;27615;51.826;5.692;2022-08-21T15:13:21;32.00;42.20
41926;DHT22;27615;51.826;5.692;2022-08-21T15:15:49;32.00;42.80
41926;DHT22;27615;51.826;5.692;2022-08-21T15:18:18;32.00;42.20
41926;DHT22;27615;51.826;5.692;2022-08-21T15:20:44;32.00;41.90
41926;DHT22;27615;51.826;5.692;2022-08-21T15:23:10;31.80;41.90
41926;DHT22;27615;51.826;5.692;2022-08-21T15:25:36;31.80;42.40
41926;DHT22;27615;51.826;5.692;2022-08-21T15:28:02;31.60;42.60
41926;DHT22;27615;51.826;5.692;2022-08-21T15:30:30;31.40;42.80
41926;DHT22;27615;51.826;5.692;2022-08-21T15:32:56;31.30;42.90
41926;DHT22;27615;51.826;5.692;2022-08-21T15:35:21;31.10;43.00
41926;DHT22;27615;51.826;5.692;2022-08-21T15:37:47;31.00;43.30
41926;DHT22;27615;51.826;5.692;2022-08-21T15:40:13;30.80;43.40
41926;DHT22;27615;51.826;5.692;2022-08-21T15:42:41;30.70;43.70
41926;DHT22;27615;51.826;5.692;2022-08-21T15:45:07;30.60;43.80
41926;DHT22;27615;51.826;5.692;2022-08-21T15:47:35;30.30;44.10
41926;DHT22;27615;51.826;5.692;2022-08-21T15:50:03;30.30;44.40
41926;DHT22;27615;51.826;5.692;2022-08-21T15:52:29;30.20;44.00
41926;DHT22;27615;51.826;5.692;2022-08-21T15:54:54;30.00;43.90
41926;DHT22;27615;51.826;5.692;2022-08-21T15:57:22;29.90;43.90
41926;DHT22;27615;51.826;5.692;2022-08-21T15:59:51;29.80;44.10
41926;DHT22;27615;51.826;5.692;2022-08-21T16:02:26;29.70;44.40
41926;DHT22;27615;51.826;5.692;2022-08-21T16:04:53;29.60;44.50
41926;DHT22;27615;51.826;5.692;2022-08-21T16:07:19;29.50;44.80
41926;DHT22;27615;51.826;5.692;2022-08-21T16:09:44;29.40;44.90
41926;DHT22;27615;51.826;5.692;2022-08-21T16:12:19;29.40;45.20
41926;DHT22;27615;51.826;5.692;2022-08-21T16:14:45;29.40;45.60
41926;DHT22;27615;51.826;5.692;2022-08-21T16:17:10;29.30;45.60
41926;DHT22;27615;51.826;5.692;2022-08-21T16:19:37;29.20;45.50
41926;DHT22;27615;51.826;5.692;2022-08-21T16:22:03;29.20;45.90
41926;DHT22;27615;51.826;5.692;2022-08-21T16:24:29;29.10;46.20
41926;DHT22;27615;51.826;5.692;2022-08-21T16:26:55;29.00;46.50
41926;DHT22;27615;51.826;5.692;2022-08-21T16:29:21;28.90;46.80
41926;DHT22;27615;51.826;5.692;2022-08-21T16:31:48;28.90;47.40
41926;DHT22;27615;51.826;5.692;2022-08-21T16:34:16;28.90;48.20
41926;DHT22;27615;51.826;5.692;2022-08-21T16:36:44;28.80;47.80
41926;DHT22;27615;51.826;5.692;2022-08-21T16:39:10;28.70;48.10
41926;DHT22;27615;51.826;5.692;2022-08-21T16:41:36;28.60;48.40
41926;DHT22;27615;51.826;5.692;2022-08-21T16:44:03;28.60;48.70